Lammy — PBRE — position and weather

sailwx.info

Track history (hours):
 
Tides and Currents Weather Stations Pressure Air Temp Water Temp Dewpoint Dewpoint Depression Visibility Wind Speed Wind Dir Waves Ship Positions

Lammy

Last reported at 2016-Jun-28 17:18 UTC. Time now 2016-Jun-29 11:09 UTC.
Position N 54°00' E 001°12'.

Length 95 m; draft 3.9 m.

Type: Cargo ship. MMSI: 245391000.

Date/timePositionNaut miles runAvg speedWind from/ knotsBaromVisibWave heightAir tempDewpointWater temp
2016-Jun-28 17:18N 54°00' E 001°12'811.1
2016-Jun-28 16:34N 53°55' E 001°00'1211.7
2016-Jun-28 15:33N 53°48' E 000°44'1212.3
2016-Jun-28 14:33N 53°41' E 000°28'1212.5
2016-Jun-28 13:33N 53°33' E 000°12'1413.7
2016-Jun-28 12:34N 53°38' W 000°09'9 8.8
2016-Jun-28 11:33N 53°42' W 000°22'0 0.0
2016-Jun-28 10:32N 53°42' W 000°22'0 0.0
2016-Jun-28 09:32N 53°42' W 000°22'0 0.0
2016-Jun-28 08:32N 53°42' W 000°22'0 0.0
2016-Jun-28 07:32N 53°42' W 000°22'0 0.0
2016-Jun-28 06:32N 53°42' W 000°22'0 0.0
2016-Jun-28 04:32N 53°42' W 000°22'0 0.0
2016-Jun-28 03:26N 53°42' W 000°22'0 0.0
2016-Jun-28 02:32N 53°42' W 000°22'0 0.0
2016-Jun-28 01:32N 53°42' W 000°22'0 0.0
2016-Jun-28 00:32N 53°42' W 000°22'0 0.0
2016-Jun-27 23:32N 53°42' W 000°22'0 0.0
2016-Jun-27 22:32N 53°42' W 000°22'0 0.0
2016-Jun-27 21:32N 53°42' W 000°22'0 0.0
2016-Jun-27 20:32N 53°42' W 000°22'0 0.0
2016-Jun-27 19:32N 53°42' W 000°22'0 0.0
2016-Jun-27 18:29N 53°42' W 000°22'0 0.0
2016-Jun-27 17:32N 53°42' W 000°22'0 0.0
2016-Jun-27 16:32N 53°42' W 000°22'0 0.0
2016-Jun-27 15:32N 53°42' W 000°22'0 0.0
2016-Jun-27 14:32N 53°42' W 000°22'0 0.0
2016-Jun-27 13:32N 53°42' W 000°22'0 0.0
2016-Jun-27 12:32N 53°42' W 000°22'0 0.0
2016-Jun-27 11:32N 53°42' W 000°22'1 0.6
2016-Jun-27 10:33N 53°43' W 000°21'3 3.3
2016-Jun-27 09:33N 53°44' W 000°16'1 0.7
2016-Jun-27 08:33N 53°45' W 000°16'0 0.0
2016-Jun-27 07:33N 53°45' W 000°16'0 0.0
2016-Jun-27 06:33N 53°45' W 000°16'0 0.0
2016-Jun-27 05:33N 53°45' W 000°16'0 0.0
2016-Jun-27 04:33N 53°45' W 000°16'0 0.0
2016-Jun-27 03:33N 53°45' W 000°16'0 0.0
2016-Jun-27 02:33N 53°45' W 000°16'0 0.0
2016-Jun-27 01:33N 53°45' W 000°16'0 0.0
2016-Jun-27 00:33N 53°45' W 000°16'0 0.0
2016-Jun-26 23:33N 53°45' W 000°16'0 0.0
2016-Jun-26 22:27N 53°45' W 000°16'0 0.0
2016-Jun-26 21:33N 53°45' W 000°16'0 0.0
2016-Jun-26 20:33N 53°45' W 000°16'0 0.0
2016-Jun-26 19:33N 53°45' W 000°16'0 0.0
2016-Jun-26 18:33N 53°45' W 000°16'0 0.0
2016-Jun-26 17:33N 53°45' W 000°16'0 0.0
2016-Jun-26 16:33N 53°45' W 000°16'0 0.0
2016-Jun-26 15:33N 53°45' W 000°16'0 0.0
2016-Jun-26 14:33N 53°45' W 000°16'0 0.0
2016-Jun-26 13:33N 53°45' W 000°16'0 0.0
2016-Jun-26 12:33N 53°45' W 000°16'0 0.0
2016-Jun-26 11:33N 53°45' W 000°16'0 0.0
2016-Jun-26 10:33N 53°45' W 000°16'0 0.0
2016-Jun-26 09:33N 53°45' W 000°16'0 0.0
2016-Jun-26 08:33N 53°45' W 000°16'0 0.0
2016-Jun-26 07:33N 53°45' W 000°16'0 0.0
2016-Jun-26 06:06N 53°45' W 000°16'0 0.8
2016-Jun-26 05:33N 53°44' W 000°16'3 3.2
2016-Jun-26 04:33N 53°42' W 000°14'9 9.3
2016-Jun-26 03:33N 53°36' W 000°02'10 9.8
2016-Jun-26 02:33N 53°33' E 000°14'8 8.4
2016-Jun-26 01:33N 53°40' E 000°24'9 4.4
2016-Jun-25 23:24N 53°43' E 000°39'5 5.5
2016-Jun-25 22:31N 53°47' E 000°43'47 9.2
2016-Jun-25 17:26N 54°15' E 001°46'36810.0
2016-Jun-24 04:33N 57°47' E 010°46'1211.6
2016-Jun-24 03:32N 57°40' E 011°03'1211.9
2016-Jun-24 02:33N 57°32' E 011°19'1211.9
2016-Jun-24 01:33N 57°22' E 011°31'2512.2
2016-Jun-23 23:30N 56°59' E 011°49'1111.7
2016-Jun-23 22:33N 56°49' E 011°57'3411.0
2016-Jun-23 19:28N 56°18' E 012°24'1111.9
2016-Jun-23 18:33N 56°08' E 012°32'1312.6
2016-Jun-23 17:33N 55°57' E 012°43'1211.8
2016-Jun-23 16:33N 55°45' E 012°42'1211.6
2016-Jun-23 15:33N 55°34' E 012°42'1111.3
2016-Jun-23 14:33N 55°22' E 012°41'10 9.5
2016-Jun-23 13:31N 55°16' E 012°54'1111.3
2016-Jun-23 12:33N 55°15' E 013°13'1211.5
2016-Jun-23 11:33N 55°15' E 013°33'1111.4
2016-Jun-23 10:33N 55°14' E 013°53'1211.6
2016-Jun-23 09:33N 55°14' E 014°13'1111.0
2016-Jun-23 08:33N 55°21' E 014°28'1111.4
2016-Jun-23 07:33N 55°29' E 014°43'2411.9
2016-Jun-23 05:33N 55°41' E 015°19'1311.9
2016-Jun-23 04:30N 55°47' E 015°38'1211.7
2016-Jun-23 03:30N 55°53' E 015°56'  
Track history (hours):
 
Tides and Currents Weather Stations Pressure Air Temp Water Temp Dewpoint Dewpoint Depression Visibility Wind Speed Wind Dir Waves Ship Positions

Lammy

Last reported at 2016-Jun-28 17:18 UTC. Time now 2016-Jun-29 11:09 UTC.
Position N 54°00' E 001°12'.

Length 95 m; draft 3.9 m.

Type: Cargo ship. MMSI: 245391000.

Date/timePositionNaut miles runAvg speedWind from/ knotsBaromVisibWave heightAir tempDewpointWater temp
2016-Jun-28 17:18N 54°00' E 001°12'811.1
2016-Jun-28 16:34N 53°55' E 001°00'1211.7
2016-Jun-28 15:33N 53°48' E 000°44'1212.3
2016-Jun-28 14:33N 53°41' E 000°28'1212.5
2016-Jun-28 13:33N 53°33' E 000°12'1413.7
2016-Jun-28 12:34N 53°38' W 000°09'9 8.8
2016-Jun-28 11:33N 53°42' W 000°22'0 0.0
2016-Jun-28 10:32N 53°42' W 000°22'0 0.0
2016-Jun-28 09:32N 53°42' W 000°22'0 0.0
2016-Jun-28 08:32N 53°42' W 000°22'0 0.0
2016-Jun-28 07:32N 53°42' W 000°22'0 0.0
2016-Jun-28 06:32N 53°42' W 000°22'0 0.0
2016-Jun-28 04:32N 53°42' W 000°22'0 0.0
2016-Jun-28 03:26N 53°42' W 000°22'0 0.0
2016-Jun-28 02:32N 53°42' W 000°22'0 0.0
2016-Jun-28 01:32N 53°42' W 000°22'0 0.0
2016-Jun-28 00:32N 53°42' W 000°22'0 0.0
2016-Jun-27 23:32N 53°42' W 000°22'0 0.0
2016-Jun-27 22:32N 53°42' W 000°22'0 0.0
2016-Jun-27 21:32N 53°42' W 000°22'0 0.0
2016-Jun-27 20:32N 53°42' W 000°22'0 0.0
2016-Jun-27 19:32N 53°42' W 000°22'0 0.0
2016-Jun-27 18:29N 53°42' W 000°22'0 0.0
2016-Jun-27 17:32N 53°42' W 000°22'0 0.0
2016-Jun-27 16:32N 53°42' W 000°22'0 0.0
2016-Jun-27 15:32N 53°42' W 000°22'0 0.0
2016-Jun-27 14:32N 53°42' W 000°22'0 0.0
2016-Jun-27 13:32N 53°42' W 000°22'0 0.0
2016-Jun-27 12:32N 53°42' W 000°22'0 0.0
2016-Jun-27 11:32N 53°42' W 000°22'1 0.6
2016-Jun-27 10:33N 53°43' W 000°21'3 3.3
2016-Jun-27 09:33N 53°44' W 000°16'1 0.7
2016-Jun-27 08:33N 53°45' W 000°16'0 0.0
2016-Jun-27 07:33N 53°45' W 000°16'0 0.0
2016-Jun-27 06:33N 53°45' W 000°16'0 0.0
2016-Jun-27 05:33N 53°45' W 000°16'0 0.0
2016-Jun-27 04:33N 53°45' W 000°16'0 0.0
2016-Jun-27 03:33N 53°45' W 000°16'0 0.0
2016-Jun-27 02:33N 53°45' W 000°16'0 0.0
2016-Jun-27 01:33N 53°45' W 000°16'0 0.0
2016-Jun-27 00:33N 53°45' W 000°16'0 0.0
2016-Jun-26 23:33N 53°45' W 000°16'0 0.0
2016-Jun-26 22:27N 53°45' W 000°16'0 0.0
2016-Jun-26 21:33N 53°45' W 000°16'0 0.0
2016-Jun-26 20:33N 53°45' W 000°16'0 0.0
2016-Jun-26 19:33N 53°45' W 000°16'0 0.0
2016-Jun-26 18:33N 53°45' W 000°16'0 0.0
2016-Jun-26 17:33N 53°45' W 000°16'0 0.0
2016-Jun-26 16:33N 53°45' W 000°16'0 0.0
2016-Jun-26 15:33N 53°45' W 000°16'0 0.0
2016-Jun-26 14:33N 53°45' W 000°16'0 0.0
2016-Jun-26 13:33N 53°45' W 000°16'0 0.0
2016-Jun-26 12:33N 53°45' W 000°16'0 0.0
2016-Jun-26 11:33N 53°45' W 000°16'0 0.0
2016-Jun-26 10:33N 53°45' W 000°16'0 0.0
2016-Jun-26 09:33N 53°45' W 000°16'0 0.0
2016-Jun-26 08:33N 53°45' W 000°16'0 0.0
2016-Jun-26 07:33N 53°45' W 000°16'0 0.0
2016-Jun-26 06:06N 53°45' W 000°16'0 0.8
2016-Jun-26 05:33N 53°44' W 000°16'3 3.2
2016-Jun-26 04:33N 53°42' W 000°14'9 9.3
2016-Jun-26 03:33N 53°36' W 000°02'10 9.8
2016-Jun-26 02:33N 53°33' E 000°14'8 8.4
2016-Jun-26 01:33N 53°40' E 000°24'9 4.4
2016-Jun-25 23:24N 53°43' E 000°39'5 5.5
2016-Jun-25 22:31N 53°47' E 000°43'47 9.2
2016-Jun-25 17:26N 54°15' E 001°46'36810.0
2016-Jun-24 04:33N 57°47' E 010°46'1211.6
2016-Jun-24 03:32N 57°40' E 011°03'1211.9
2016-Jun-24 02:33N 57°32' E 011°19'1211.9
2016-Jun-24 01:33N 57°22' E 011°31'2512.2
2016-Jun-23 23:30N 56°59' E 011°49'1111.7
2016-Jun-23 22:33N 56°49' E 011°57'3411.0
2016-Jun-23 19:28N 56°18' E 012°24'1111.9
2016-Jun-23 18:33N 56°08' E 012°32'1312.6
2016-Jun-23 17:33N 55°57' E 012°43'1211.8
2016-Jun-23 16:33N 55°45' E 012°42'1211.6
2016-Jun-23 15:33N 55°34' E 012°42'1111.3
2016-Jun-23 14:33N 55°22' E 012°41'10 9.5
2016-Jun-23 13:31N 55°16' E 012°54'1111.3
2016-Jun-23 12:33N 55°15' E 013°13'1211.5
2016-Jun-23 11:33N 55°15' E 013°33'1111.4
2016-Jun-23 10:33N 55°14' E 013°53'1211.6
2016-Jun-23 09:33N 55°14' E 014°13'1111.0
2016-Jun-23 08:33N 55°21' E 014°28'1111.4
2016-Jun-23 07:33N 55°29' E 014°43'2411.9
2016-Jun-23 05:33N 55°41' E 015°19'1311.9
2016-Jun-23 04:30N 55°47' E 015°38'1211.7
2016-Jun-23 03:30N 55°53' E 015°56'  

Dump ship's entire track history